sensor_id;sensor_type;location;lat;lon;timestamp;P1;durP1;ratioP1;P2;durP2;ratioP2
54171;SDS011;40076;52.354;4.970;2023-04-03T00:01:53;4.53;;;1.48;;
54171;SDS011;40076;52.354;4.970;2023-04-03T00:04:18;3.10;;;0.95;;
54171;SDS011;40076;52.354;4.970;2023-04-03T00:06:44;2.53;;;0.98;;
54171;SDS011;40076;52.354;4.970;2023-04-03T00:09:09;3.58;;;1.00;;
54171;SDS011;40076;52.354;4.970;2023-04-03T00:11:35;3.58;;;1.20;;
54171;SDS011;40076;52.354;4.970;2023-04-03T00:14:03;9.88;;;1.30;;
54171;SDS011;40076;52.354;4.970;2023-04-03T00:16:29;3.00;;;0.95;;
54171;SDS011;40076;52.354;4.970;2023-04-03T00:18:54;3.72;;;1.10;;
54171;SDS011;40076;52.354;4.970;2023-04-03T00:21:20;3.78;;;1.05;;
54171;SDS011;40076;52.354;4.970;2023-04-03T00:23:45;3.38;;;1.00;;
54171;SDS011;40076;52.354;4.970;2023-04-03T00:26:12;2.55;;;1.10;;
54171;SDS011;40076;52.354;4.970;2023-04-03T00:28:38;6.07;;;1.25;;
54171;SDS011;40076;52.354;4.970;2023-04-03T00:31:03;4.88;;;1.15;;
54171;SDS011;40076;52.354;4.970;2023-04-03T00:33:29;4.32;;;1.10;;
54171;SDS011;40076;52.354;4.970;2023-04-03T00:35:54;3.47;;;0.98;;
54171;SDS011;40076;52.354;4.970;2023-04-03T00:38:19;5.28;;;1.08;;
54171;SDS011;40076;52.354;4.970;2023-04-03T00:40:46;5.28;;;1.30;;
54171;SDS011;40076;52.354;4.970;2023-04-03T00:43:14;5.07;;;1.30;;
54171;SDS011;40076;52.354;4.970;2023-04-03T00:45:46;4.00;;;1.05;;
54171;SDS011;40076;52.354;4.970;2023-04-03T00:48:15;4.40;;;1.27;;
54171;SDS011;40076;52.354;4.970;2023-04-03T00:50:43;4.03;;;1.13;;
54171;SDS011;40076;52.354;4.970;2023-04-03T00:53:14;3.85;;;1.52;;
54171;SDS011;40076;52.354;4.970;2023-04-03T00:55:44;5.70;;;1.90;;
54171;SDS011;40076;52.354;4.970;2023-04-03T00:58:16;5.47;;;1.23;;
54171;SDS011;40076;52.354;4.970;2023-04-03T01:00:46;5.88;;;1.42;;
54171;SDS011;40076;52.354;4.970;2023-04-03T01:03:21;3.30;;;1.20;;
54171;SDS011;40076;52.354;4.970;2023-04-03T01:05:46;5.00;;;1.38;;
54171;SDS011;40076;52.354;4.970;2023-04-03T01:08:12;4.32;;;1.27;;
54171;SDS011;40076;52.354;4.970;2023-04-03T01:10:37;4.55;;;1.20;;
54171;SDS011;40076;52.354;4.970;2023-04-03T01:13:07;6.20;;;1.58;;
54171;SDS011;40076;52.354;4.970;2023-04-03T01:15:50;3.50;;;1.50;;
54171;SDS011;40076;52.354;4.970;2023-04-03T01:18:16;3.55;;;1.30;;
54171;SDS011;40076;52.354;4.970;2023-04-03T01:20:50;3.90;;;1.50;;
54171;SDS011;40076;52.354;4.970;2023-04-03T01:26:45;7.05;;;1.48;;
54171;SDS011;40076;52.354;4.970;2023-04-03T01:29:10;3.97;;;1.40;;
54171;SDS011;40076;52.354;4.970;2023-04-03T01:31:49;4.43;;;1.33;;
54171;SDS011;40076;52.354;4.970;2023-04-03T01:34:16;4.93;;;1.35;;
54171;SDS011;40076;52.354;4.970;2023-04-03T01:36:42;4.93;;;1.58;;
54171;SDS011;40076;52.354;4.970;2023-04-03T01:39:07;6.70;;;1.60;;
54171;SDS011;40076;52.354;4.970;2023-04-03T01:41:33;8.63;;;1.95;;
54171;SDS011;40076;52.354;4.970;2023-04-03T01:43:58;4.50;;;1.60;;
54171;SDS011;40076;52.354;4.970;2023-04-03T01:46:24;3.58;;;1.38;;
54171;SDS011;40076;52.354;4.970;2023-04-03T01:48:50;4.90;;;1.80;;
54171;SDS011;40076;52.354;4.970;2023-04-03T01:51:15;5.70;;;1.95;;
54171;SDS011;40076;52.354;4.970;2023-04-03T01:53:41;5.82;;;1.60;;
54171;SDS011;40076;52.354;4.970;2023-04-03T01:56:06;5.13;;;1.33;;
54171;SDS011;40076;52.354;4.970;2023-04-03T01:58:31;6.20;;;1.73;;
54171;SDS011;40076;52.354;4.970;2023-04-03T02:00:57;5.00;;;1.58;;
54171;SDS011;40076;52.354;4.970;2023-04-03T02:03:22;4.72;;;1.35;;
54171;SDS011;40076;52.354;4.970;2023-04-03T02:05:48;3.80;;;1.52;;
54171;SDS011;40076;52.354;4.970;2023-04-03T02:08:14;6.20;;;1.90;;
54171;SDS011;40076;52.354;4.970;2023-04-03T02:10:42;7.95;;;1.88;;
54171;SDS011;40076;52.354;4.970;2023-04-03T02:13:08;8.20;;;1.90;;
54171;SDS011;40076;52.354;4.970;2023-04-03T02:15:34;5.47;;;1.90;;
54171;SDS011;40076;52.354;4.970;2023-04-03T02:18:03;6.47;;;1.80;;
54171;SDS011;40076;52.354;4.970;2023-04-03T02:20:28;4.93;;;1.58;;
54171;SDS011;40076;52.354;4.970;2023-04-03T02:22:53;6.18;;;1.60;;
54171;SDS011;40076;52.354;4.970;2023-04-03T02:25:19;8.15;;;1.88;;
54171;SDS011;40076;52.354;4.970;2023-04-03T02:27:45;4.85;;;1.60;;
54171;SDS011;40076;52.354;4.970;2023-04-03T02:30:10;8.13;;;2.03;;
54171;SDS011;40076;52.354;4.970;2023-04-03T02:32:36;5.00;;;1.48;;
54171;SDS011;40076;52.354;4.970;2023-04-03T02:35:02;3.42;;;1.70;;
54171;SDS011;40076;52.354;4.970;2023-04-03T02:37:27;5.15;;;1.65;;
54171;SDS011;40076;52.354;4.970;2023-04-03T02:39:53;4.95;;;1.77;;
54171;SDS011;40076;52.354;4.970;2023-04-03T02:42:18;8.85;;;1.60;;
54171;SDS011;40076;52.354;4.970;2023-04-03T02:44:43;6.68;;;1.70;;
54171;SDS011;40076;52.354;4.970;2023-04-03T02:47:09;5.82;;;1.90;;
54171;SDS011;40076;52.354;4.970;2023-04-03T02:49:34;6.78;;;1.80;;
54171;SDS011;40076;52.354;4.970;2023-04-03T02:52:00;6.38;;;1.63;;
54171;SDS011;40076;52.354;4.970;2023-04-03T02:54:25;6.43;;;1.70;;
54171;SDS011;40076;52.354;4.970;2023-04-03T02:56:53;4.60;;;1.67;;
54171;SDS011;40076;52.354;4.970;2023-04-03T02:59:19;6.57;;;1.88;;
54171;SDS011;40076;52.354;4.970;2023-04-03T03:01:45;5.57;;;2.08;;
54171;SDS011;40076;52.354;4.970;2023-04-03T03:04:10;6.22;;;1.73;;
54171;SDS011;40076;52.354;4.970;2023-04-03T03:06:35;7.50;;;2.08;;
54171;SDS011;40076;52.354;4.970;2023-04-03T03:09:01;6.97;;;2.28;;
54171;SDS011;40076;52.354;4.970;2023-04-03T03:11:26;6.45;;;1.77;;
54171;SDS011;40076;52.354;4.970;2023-04-03T03:13:52;6.25;;;1.95;;
54171;SDS011;40076;52.354;4.970;2023-04-03T03:16:17;3.83;;;1.73;;
54171;SDS011;40076;52.354;4.970;2023-04-03T03:18:42;6.10;;;1.85;;
54171;SDS011;40076;52.354;4.970;2023-04-03T03:21:08;5.03;;;1.80;;
54171;SDS011;40076;52.354;4.970;2023-04-03T03:23:34;3.38;;;1.50;;
54171;SDS011;40076;52.354;4.970;2023-04-03T03:26:01;5.47;;;1.75;;
54171;SDS011;40076;52.354;4.970;2023-04-03T03:28:29;6.28;;;2.05;;
54171;SDS011;40076;52.354;4.970;2023-04-03T03:30:56;6.95;;;2.15;;
54171;SDS011;40076;52.354;4.970;2023-04-03T03:33:24;5.85;;;1.80;;
54171;SDS011;40076;52.354;4.970;2023-04-03T03:35:51;6.30;;;2.17;;
54171;SDS011;40076;52.354;4.970;2023-04-03T03:38:16;6.63;;;1.83;;
54171;SDS011;40076;52.354;4.970;2023-04-03T03:40:42;7.70;;;1.80;;
54171;SDS011;40076;52.354;4.970;2023-04-03T03:43:07;6.22;;;2.30;;
54171;SDS011;40076;52.354;4.970;2023-04-03T03:45:32;6.45;;;1.88;;
54171;SDS011;40076;52.354;4.970;2023-04-03T03:47:58;7.13;;;2.33;;
54171;SDS011;40076;52.354;4.970;2023-04-03T03:50:23;9.02;;;2.03;;
54171;SDS011;40076;52.354;4.970;2023-04-03T03:52:49;6.15;;;1.90;;
54171;SDS011;40076;52.354;4.970;2023-04-03T03:55:14;7.03;;;2.25;;
54171;SDS011;40076;52.354;4.970;2023-04-03T03:57:40;5.45;;;1.80;;
54171;SDS011;40076;52.354;4.970;2023-04-03T04:00:06;5.05;;;1.90;;
54171;SDS011;40076;52.354;4.970;2023-04-03T04:02:32;3.85;;;1.58;;
54171;SDS011;40076;52.354;4.970;2023-04-03T04:04:57;5.90;;;2.10;;
54171;SDS011;40076;52.354;4.970;2023-04-03T04:07:23;7.38;;;2.03;;
54171;SDS011;40076;52.354;4.970;2023-04-03T04:09:48;7.63;;;1.75;;
54171;SDS011;40076;52.354;4.970;2023-04-03T04:12:14;6.65;;;1.80;;
54171;SDS011;40076;52.354;4.970;2023-04-03T04:14:40;5.15;;;2.05;;
54171;SDS011;40076;52.354;4.970;2023-04-03T04:17:06;7.75;;;2.28;;
54171;SDS011;40076;52.354;4.970;2023-04-03T04:19:31;7.32;;;1.90;;
54171;SDS011;40076;52.354;4.970;2023-04-03T04:21:58;6.90;;;2.38;;
54171;SDS011;40076;52.354;4.970;2023-04-03T04:24:23;6.03;;;1.90;;
54171;SDS011;40076;52.354;4.970;2023-04-03T04:26:48;5.07;;;2.03;;
54171;SDS011;40076;52.354;4.970;2023-04-03T04:29:14;6.10;;;1.90;;
54171;SDS011;40076;52.354;4.970;2023-04-03T04:31:39;7.18;;;1.75;;
54171;SDS011;40076;52.354;4.970;2023-04-03T04:34:05;7.57;;;1.98;;
54171;SDS011;40076;52.354;4.970;2023-04-03T04:36:30;6.78;;;2.00;;
54171;SDS011;40076;52.354;4.970;2023-04-03T04:38:56;5.10;;;1.88;;
54171;SDS011;40076;52.354;4.970;2023-04-03T04:41:22;7.35;;;2.17;;
54171;SDS011;40076;52.354;4.970;2023-04-03T04:43:48;7.60;;;2.30;;
54171;SDS011;40076;52.354;4.970;2023-04-03T04:46:14;4.22;;;1.98;;
54171;SDS011;40076;52.354;4.970;2023-04-03T04:48:40;5.78;;;2.20;;
54171;SDS011;40076;52.354;4.970;2023-04-03T04:51:06;9.00;;;2.38;;
54171;SDS011;40076;52.354;4.970;2023-04-03T04:53:31;6.80;;;2.25;;
54171;SDS011;40076;52.354;4.970;2023-04-03T04:55:57;8.10;;;2.30;;
54171;SDS011;40076;52.354;4.970;2023-04-03T04:58:22;6.65;;;2.67;;
54171;SDS011;40076;52.354;4.970;2023-04-03T05:00:48;9.43;;;2.75;;
54171;SDS011;40076;52.354;4.970;2023-04-03T05:03:26;5.65;;;1.77;;
54171;SDS011;40076;52.354;4.970;2023-04-03T05:05:51;4.85;;;2.00;;
54171;SDS011;40076;52.354;4.970;2023-04-03T05:08:26;7.45;;;2.10;;
54171;SDS011;40076;52.354;4.970;2023-04-03T05:10:52;8.63;;;2.40;;
54171;SDS011;40076;52.354;4.970;2023-04-03T05:13:18;8.75;;;2.30;;
54171;SDS011;40076;52.354;4.970;2023-04-03T05:15:43;5.35;;;1.80;;
54171;SDS011;40076;52.354;4.970;2023-04-03T05:18:11;6.30;;;2.45;;
54171;SDS011;40076;52.354;4.970;2023-04-03T05:20:39;6.47;;;2.50;;
54171;SDS011;40076;52.354;4.970;2023-04-03T05:23:05;6.38;;;1.65;;
54171;SDS011;40076;52.354;4.970;2023-04-03T05:25:31;5.43;;;1.70;;
54171;SDS011;40076;52.354;4.970;2023-04-03T05:27:56;5.75;;;2.13;;
54171;SDS011;40076;52.354;4.970;2023-04-03T05:30:22;6.65;;;2.33;;
54171;SDS011;40076;52.354;4.970;2023-04-03T05:32:47;10.32;;;1.98;;
54171;SDS011;40076;52.354;4.970;2023-04-03T05:35:12;4.78;;;1.63;;
54171;SDS011;40076;52.354;4.970;2023-04-03T05:37:38;7.78;;;3.17;;
54171;SDS011;40076;52.354;4.970;2023-04-03T05:40:04;7.05;;;1.95;;
54171;SDS011;40076;52.354;4.970;2023-04-03T05:42:30;11.75;;;2.53;;
54171;SDS011;40076;52.354;4.970;2023-04-03T05:44:56;6.32;;;1.98;;
54171;SDS011;40076;52.354;4.970;2023-04-03T05:47:21;6.75;;;1.88;;
54171;SDS011;40076;52.354;4.970;2023-04-03T05:49:46;9.07;;;2.17;;
54171;SDS011;40076;52.354;4.970;2023-04-03T05:52:23;12.35;;;2.30;;
54171;SDS011;40076;52.354;4.970;2023-04-03T05:54:52;7.38;;;1.98;;
54171;SDS011;40076;52.354;4.970;2023-04-03T05:57:18;6.28;;;1.90;;
54171;SDS011;40076;52.354;4.970;2023-04-03T05:59:43;13.93;;;2.17;;
54171;SDS011;40076;52.354;4.970;2023-04-03T06:02:11;7.47;;;2.17;;
54171;SDS011;40076;52.354;4.970;2023-04-03T06:04:38;4.40;;;1.90;;
54171;SDS011;40076;52.354;4.970;2023-04-03T06:07:04;9.38;;;2.08;;
54171;SDS011;40076;52.354;4.970;2023-04-03T06:09:30;6.50;;;2.25;;
54171;SDS011;40076;52.354;4.970;2023-04-03T06:11:55;8.45;;;2.03;;
54171;SDS011;40076;52.354;4.970;2023-04-03T06:14:23;6.32;;;2.17;;
54171;SDS011;40076;52.354;4.970;2023-04-03T06:16:49;6.20;;;1.98;;
54171;SDS011;40076;52.354;4.970;2023-04-03T06:19:14;6.32;;;2.40;;
54171;SDS011;40076;52.354;4.970;2023-04-03T06:21:40;4.53;;;1.65;;
54171;SDS011;40076;52.354;4.970;2023-04-03T06:24:06;7.13;;;2.08;;
54171;SDS011;40076;52.354;4.970;2023-04-03T06:26:32;11.93;;;2.70;;
54171;SDS011;40076;52.354;4.970;2023-04-03T06:28:58;7.63;;;1.80;;
54171;SDS011;40076;52.354;4.970;2023-04-03T06:31:24;8.75;;;2.47;;
54171;SDS011;40076;52.354;4.970;2023-04-03T06:33:49;9.77;;;2.10;;
54171;SDS011;40076;52.354;4.970;2023-04-03T06:36:15;10.57;;;2.55;;
54171;SDS011;40076;52.354;4.970;2023-04-03T06:38:44;4.60;;;1.60;;
54171;SDS011;40076;52.354;4.970;2023-04-03T06:41:10;9.50;;;2.15;;
54171;SDS011;40076;52.354;4.970;2023-04-03T06:43:36;7.78;;;2.22;;
54171;SDS011;40076;52.354;4.970;2023-04-03T06:46:01;8.98;;;2.15;;
54171;SDS011;40076;52.354;4.970;2023-04-03T06:48:27;6.72;;;2.17;;
54171;SDS011;40076;52.354;4.970;2023-04-03T06:50:52;5.88;;;2.10;;
54171;SDS011;40076;52.354;4.970;2023-04-03T06:53:18;5.20;;;2.03;;
54171;SDS011;40076;52.354;4.970;2023-04-03T06:55:43;9.15;;;2.30;;
54171;SDS011;40076;52.354;4.970;2023-04-03T06:58:08;6.50;;;2.50;;
54171;SDS011;40076;52.354;4.970;2023-04-03T07:00:34;7.43;;;2.13;;
54171;SDS011;40076;52.354;4.970;2023-04-03T07:02:59;8.70;;;2.38;;
54171;SDS011;40076;52.354;4.970;2023-04-03T07:05:25;7.95;;;2.33;;
54171;SDS011;40076;52.354;4.970;2023-04-03T07:07:51;10.48;;;2.33;;
54171;SDS011;40076;52.354;4.970;2023-04-03T07:10:17;6.90;;;1.90;;
54171;SDS011;40076;52.354;4.970;2023-04-03T07:12:43;6.25;;;1.98;;
54171;SDS011;40076;52.354;4.970;2023-04-03T07:15:08;6.47;;;2.08;;
54171;SDS011;40076;52.354;4.970;2023-04-03T07:17:34;5.53;;;1.98;;
54171;SDS011;40076;52.354;4.970;2023-04-03T07:20:01;7.90;;;2.30;;
54171;SDS011;40076;52.354;4.970;2023-04-03T07:22:27;8.30;;;2.33;;
54171;SDS011;40076;52.354;4.970;2023-04-03T07:24:53;7.00;;;2.30;;
54171;SDS011;40076;52.354;4.970;2023-04-03T07:27:18;7.50;;;2.10;;
54171;SDS011;40076;52.354;4.970;2023-04-03T07:29:44;7.53;;;1.80;;
54171;SDS011;40076;52.354;4.970;2023-04-03T07:32:10;5.25;;;2.17;;
54171;SDS011;40076;52.354;4.970;2023-04-03T07:34:36;6.97;;;2.15;;
54171;SDS011;40076;52.354;4.970;2023-04-03T07:37:02;7.20;;;1.90;;
54171;SDS011;40076;52.354;4.970;2023-04-03T07:39:27;7.22;;;2.35;;
54171;SDS011;40076;52.354;4.970;2023-04-03T07:41:53;7.60;;;2.38;;
54171;SDS011;40076;52.354;4.970;2023-04-03T07:44:21;10.30;;;3.10;;
54171;SDS011;40076;52.354;4.970;2023-04-03T07:46:46;6.68;;;1.60;;
54171;SDS011;40076;52.354;4.970;2023-04-03T07:49:13;7.78;;;2.00;;
54171;SDS011;40076;52.354;4.970;2023-04-03T07:51:39;7.05;;;1.92;;
54171;SDS011;40076;52.354;4.970;2023-04-03T07:54:04;5.45;;;1.92;;
54171;SDS011;40076;52.354;4.970;2023-04-03T07:56:30;8.77;;;2.05;;
54171;SDS011;40076;52.354;4.970;2023-04-03T07:58:55;4.90;;;1.90;;
54171;SDS011;40076;52.354;4.970;2023-04-03T08:01:20;8.30;;;1.95;;
54171;SDS011;40076;52.354;4.970;2023-04-03T08:03:46;7.30;;;2.28;;
54171;SDS011;40076;52.354;4.970;2023-04-03T08:06:11;8.35;;;1.70;;
54171;SDS011;40076;52.354;4.970;2023-04-03T08:08:39;6.13;;;2.03;;
54171;SDS011;40076;52.354;4.970;2023-04-03T08:11:05;4.30;;;1.67;;
54171;SDS011;40076;52.354;4.970;2023-04-03T08:13:31;6.82;;;1.63;;
54171;SDS011;40076;52.354;4.970;2023-04-03T08:15:57;6.95;;;2.10;;
54171;SDS011;40076;52.354;4.970;2023-04-03T08:18:24;5.50;;;2.10;;
54171;SDS011;40076;52.354;4.970;2023-04-03T08:20:51;4.63;;;1.83;;
54171;SDS011;40076;52.354;4.970;2023-04-03T08:23:16;5.90;;;1.73;;
54171;SDS011;40076;52.354;4.970;2023-04-03T08:25:43;7.35;;;1.85;;
54171;SDS011;40076;52.354;4.970;2023-04-03T08:28:09;5.75;;;1.80;;
54171;SDS011;40076;52.354;4.970;2023-04-03T08:30:35;9.68;;;1.98;;
54171;SDS011;40076;52.354;4.970;2023-04-03T08:33:03;5.30;;;1.73;;
54171;SDS011;40076;52.354;4.970;2023-04-03T08:35:29;6.30;;;1.65;;
54171;SDS011;40076;52.354;4.970;2023-04-03T08:37:54;8.45;;;1.80;;
54171;SDS011;40076;52.354;4.970;2023-04-03T08:40:20;4.97;;;1.70;;
54171;SDS011;40076;52.354;4.970;2023-04-03T08:48:29;6.35;;;1.55;;
54171;SDS011;40076;52.354;4.970;2023-04-03T08:50:59;5.65;;;1.70;;
54171;SDS011;40076;52.354;4.970;2023-04-03T08:53:30;4.57;;;1.50;;
54171;SDS011;40076;52.354;4.970;2023-04-03T08:56:00;4.80;;;1.73;;
54171;SDS011;40076;52.354;4.970;2023-04-03T08:58:30;4.32;;;2.00;;
54171;SDS011;40076;52.354;4.970;2023-04-03T09:01:16;5.93;;;1.40;;
54171;SDS011;40076;52.354;4.970;2023-04-03T09:03:47;5.07;;;1.50;;
54171;SDS011;40076;52.354;4.970;2023-04-03T09:17:28;3.42;;;1.33;;
54171;SDS011;40076;52.354;4.970;2023-04-03T09:22:49;5.40;;;1.30;;
54171;SDS011;40076;52.354;4.970;2023-04-03T09:25:20;3.58;;;1.20;;
54171;SDS011;40076;52.354;4.970;2023-04-03T09:27:48;5.90;;;1.23;;
54171;SDS011;40076;52.354;4.970;2023-04-03T09:30:15;4.93;;;1.08;;
54171;SDS011;40076;52.354;4.970;2023-04-03T09:32:44;4.18;;;1.05;;
54171;SDS011;40076;52.354;4.970;2023-04-03T09:37:54;4.68;;;1.08;;
54171;SDS011;40076;52.354;4.970;2023-04-03T09:42:49;3.23;;;1.13;;
54171;SDS011;40076;52.354;4.970;2023-04-03T09:50:37;3.58;;;0.90;;
54171;SDS011;40076;52.354;4.970;2023-04-03T09:53:29;2.97;;;1.10;;
54171;SDS011;40076;52.354;4.970;2023-04-03T09:55:57;5.82;;;1.15;;
54171;SDS011;40076;52.354;4.970;2023-04-03T09:58:27;3.58;;;0.82;;
54171;SDS011;40076;52.354;4.970;2023-04-03T10:00:59;3.50;;;0.77;;
54171;SDS011;40076;52.354;4.970;2023-04-03T10:03:35;5.80;;;1.10;;
54171;SDS011;40076;52.354;4.970;2023-04-03T10:06:02;4.95;;;0.95;;
54171;SDS011;40076;52.354;4.970;2023-04-03T10:08:33;4.13;;;1.00;;
54171;SDS011;40076;52.354;4.970;2023-04-03T10:16:20;4.00;;;1.13;;
54171;SDS011;40076;52.354;4.970;2023-04-03T10:18:55;3.42;;;0.93;;
54171;SDS011;40076;52.354;4.970;2023-04-03T10:24:21;3.00;;;0.90;;
54171;SDS011;40076;52.354;4.970;2023-04-03T10:26:57;2.80;;;0.73;;
54171;SDS011;40076;52.354;4.970;2023-04-03T10:29:29;2.45;;;0.70;;
54171;SDS011;40076;52.354;4.970;2023-04-03T10:34:44;3.08;;;1.00;;
54171;SDS011;40076;52.354;4.970;2023-04-03T10:42:46;3.20;;;0.75;;
54171;SDS011;40076;52.354;4.970;2023-04-03T10:56:54;3.53;;;0.65;;
54171;SDS011;40076;52.354;4.970;2023-04-03T10:59:25;1.95;;;0.70;;
54171;SDS011;40076;52.354;4.970;2023-04-03T11:01:56;1.75;;;0.50;;
54171;SDS011;40076;52.354;4.970;2023-04-03T11:04:26;2.10;;;0.60;;
54171;SDS011;40076;52.354;4.970;2023-04-03T11:07:00;2.72;;;0.70;;
54171;SDS011;40076;52.354;4.970;2023-04-03T11:09:35;1.95;;;0.57;;
54171;SDS011;40076;52.354;4.970;2023-04-03T11:12:17;2.70;;;0.80;;
54171;SDS011;40076;52.354;4.970;2023-04-03T11:14:50;1.67;;;0.50;;
54171;SDS011;40076;52.354;4.970;2023-04-03T11:20:02;2.33;;;0.57;;
54171;SDS011;40076;52.354;4.970;2023-04-03T11:22:36;2.08;;;0.57;;
54171;SDS011;40076;52.354;4.970;2023-04-03T11:27:40;2.72;;;0.60;;
54171;SDS011;40076;52.354;4.970;2023-04-03T11:30:13;1.95;;;0.75;;
54171;SDS011;40076;52.354;4.970;2023-04-03T11:35:43;4.50;;;0.90;;
54171;SDS011;40076;52.354;4.970;2023-04-03T11:38:14;2.15;;;0.60;;
54171;SDS011;40076;52.354;4.970;2023-04-03T11:40:47;2.25;;;0.80;;
54171;SDS011;40076;52.354;4.970;2023-04-03T11:46:01;3.50;;;0.80;;
54171;SDS011;40076;52.354;4.970;2023-04-03T11:48:41;3.20;;;0.77;;
54171;SDS011;40076;52.354;4.970;2023-04-03T11:53:38;2.92;;;0.70;;
54171;SDS011;40076;52.354;4.970;2023-04-03T12:04:12;2.17;;;0.52;;
54171;SDS011;40076;52.354;4.970;2023-04-03T12:09:21;3.47;;;0.60;;
54171;SDS011;40076;52.354;4.970;2023-04-03T12:11:59;3.45;;;0.70;;
54171;SDS011;40076;52.354;4.970;2023-04-03T12:14:26;2.17;;;0.60;;
54171;SDS011;40076;52.354;4.970;2023-04-03T12:16:54;3.63;;;0.70;;
54171;SDS011;40076;52.354;4.970;2023-04-03T12:24:26;2.10;;;0.52;;
54171;SDS011;40076;52.354;4.970;2023-04-03T12:29:24;4.10;;;0.77;;
54171;SDS011;40076;52.354;4.970;2023-04-03T12:45:43;2.15;;;0.43;;
54171;SDS011;40076;52.354;4.970;2023-04-03T12:48:17;2.88;;;0.70;;
54171;SDS011;40076;52.354;4.970;2023-04-03T12:50:47;2.80;;;0.80;;
54171;SDS011;40076;52.354;4.970;2023-04-03T12:53:16;2.70;;;0.70;;
54171;SDS011;40076;52.354;4.970;2023-04-03T12:55:44;3.38;;;0.63;;
54171;SDS011;40076;52.354;4.970;2023-04-03T12:58:13;9.82;;;0.90;;
54171;SDS011;40076;52.354;4.970;2023-04-03T13:00:46;3.42;;;0.77;;
54171;SDS011;40076;52.354;4.970;2023-04-03T13:03:24;2.80;;;0.80;;
54171;SDS011;40076;52.354;4.970;2023-04-03T13:05:59;2.90;;;0.68;;
54171;SDS011;40076;52.354;4.970;2023-04-03T13:08:26;2.65;;;0.70;;
54171;SDS011;40076;52.354;4.970;2023-04-03T13:10:54;2.90;;;1.00;;
54171;SDS011;40076;52.354;4.970;2023-04-03T13:13:23;2.53;;;0.70;;
54171;SDS011;40076;52.354;4.970;2023-04-03T13:15:48;6.82;;;1.00;;
54171;SDS011;40076;52.354;4.970;2023-04-03T13:18:25;3.17;;;0.60;;
54171;SDS011;40076;52.354;4.970;2023-04-03T13:20:57;2.45;;;0.93;;
54171;SDS011;40076;52.354;4.970;2023-04-03T13:23:26;6.40;;;1.05;;
54171;SDS011;40076;52.354;4.970;2023-04-03T13:25:52;2.42;;;0.70;;
54171;SDS011;40076;52.354;4.970;2023-04-03T13:28:20;2.60;;;0.77;;
54171;SDS011;40076;52.354;4.970;2023-04-03T13:31:02;3.35;;;0.90;;
54171;SDS011;40076;52.354;4.970;2023-04-03T13:33:31;3.72;;;1.00;;
54171;SDS011;40076;52.354;4.970;2023-04-03T13:38:30;3.53;;;0.70;;
54171;SDS011;40076;52.354;4.970;2023-04-03T13:40:59;3.53;;;1.00;;
54171;SDS011;40076;52.354;4.970;2023-04-03T13:43:28;4.15;;;0.68;;
54171;SDS011;40076;52.354;4.970;2023-04-03T13:46:20;2.67;;;1.10;;
54171;SDS011;40076;52.354;4.970;2023-04-03T13:48:50;3.35;;;1.08;;
54171;SDS011;40076;52.354;4.970;2023-04-03T13:51:18;4.18;;;0.90;;
54171;SDS011;40076;52.354;4.970;2023-04-03T13:53:55;3.03;;;0.80;;
54171;SDS011;40076;52.354;4.970;2023-04-03T13:58:59;4.38;;;0.90;;
54171;SDS011;40076;52.354;4.970;2023-04-03T14:01:33;3.47;;;1.30;;
54171;SDS011;40076;52.354;4.970;2023-04-03T14:04:10;3.58;;;0.98;;
54171;SDS011;40076;52.354;4.970;2023-04-03T14:06:44;3.58;;;0.90;;
54171;SDS011;40076;52.354;4.970;2023-04-03T14:09:11;2.38;;;0.88;;
54171;SDS011;40076;52.354;4.970;2023-04-03T14:11:37;3.33;;;1.15;;
54171;SDS011;40076;52.354;4.970;2023-04-03T14:14:05;4.22;;;1.15;;
54171;SDS011;40076;52.354;4.970;2023-04-03T14:16:43;4.25;;;1.20;;
54171;SDS011;40076;52.354;4.970;2023-04-03T14:19:21;2.95;;;0.88;;
54171;SDS011;40076;52.354;4.970;2023-04-03T14:21:52;2.72;;;0.90;;
54171;SDS011;40076;52.354;4.970;2023-04-03T14:24:19;4.20;;;1.08;;
54171;SDS011;40076;52.354;4.970;2023-04-03T14:26:46;4.70;;;0.90;;
54171;SDS011;40076;52.354;4.970;2023-04-03T14:29:13;3.50;;;0.90;;
54171;SDS011;40076;52.354;4.970;2023-04-03T14:31:39;5.15;;;1.00;;
54171;SDS011;40076;52.354;4.970;2023-04-03T14:34:06;3.53;;;0.85;;
54171;SDS011;40076;52.354;4.970;2023-04-03T14:36:32;3.95;;;0.93;;
54171;SDS011;40076;52.354;4.970;2023-04-03T14:38:58;3.50;;;1.40;;
54171;SDS011;40076;52.354;4.970;2023-04-03T14:41:24;3.05;;;1.17;;
54171;SDS011;40076;52.354;4.970;2023-04-03T14:43:51;3.53;;;1.08;;
54171;SDS011;40076;52.354;4.970;2023-04-03T14:46:22;4.88;;;1.10;;
54171;SDS011;40076;52.354;4.970;2023-04-03T14:48:52;4.90;;;1.00;;
54171;SDS011;40076;52.354;4.970;2023-04-03T14:51:17;2.78;;;1.10;;
54171;SDS011;40076;52.354;4.970;2023-04-03T14:53:43;3.28;;;1.42;;
54171;SDS011;40076;52.354;4.970;2023-04-03T14:56:14;6.28;;;1.00;;
54171;SDS011;40076;52.354;4.970;2023-04-03T15:01:09;3.60;;;1.17;;
54171;SDS011;40076;52.354;4.970;2023-04-03T15:03:37;4.07;;;0.88;;
54171;SDS011;40076;52.354;4.970;2023-04-03T15:06:02;3.72;;;1.02;;
54171;SDS011;40076;52.354;4.970;2023-04-03T15:08:28;4.22;;;0.98;;
54171;SDS011;40076;52.354;4.970;2023-04-03T15:10:56;2.58;;;1.00;;
54171;SDS011;40076;52.354;4.970;2023-04-03T15:13:22;3.53;;;1.10;;
54171;SDS011;40076;52.354;4.970;2023-04-03T15:15:48;2.60;;;0.88;;
54171;SDS011;40076;52.354;4.970;2023-04-03T15:18:17;3.63;;;1.02;;
54171;SDS011;40076;52.354;4.970;2023-04-03T15:20:44;3.85;;;1.10;;
54171;SDS011;40076;52.354;4.970;2023-04-03T15:23:11;3.78;;;1.00;;
54171;SDS011;40076;52.354;4.970;2023-04-03T15:25:38;2.97;;;0.75;;
54171;SDS011;40076;52.354;4.970;2023-04-03T15:28:04;4.07;;;1.17;;
54171;SDS011;40076;52.354;4.970;2023-04-03T15:30:30;3.65;;;0.98;;
54171;SDS011;40076;52.354;4.970;2023-04-03T15:32:56;3.80;;;1.13;;
54171;SDS011;40076;52.354;4.970;2023-04-03T15:35:21;4.03;;;1.58;;
54171;SDS011;40076;52.354;4.970;2023-04-03T15:37:47;4.05;;;1.02;;
54171;SDS011;40076;52.354;4.970;2023-04-03T15:40:13;2.45;;;0.98;;
54171;SDS011;40076;52.354;4.970;2023-04-03T15:42:38;2.70;;;0.82;;
54171;SDS011;40076;52.354;4.970;2023-04-03T15:45:05;5.07;;;1.05;;
54171;SDS011;40076;52.354;4.970;2023-04-03T15:47:31;2.33;;;0.70;;
54171;SDS011;40076;52.354;4.970;2023-04-03T15:49:56;3.50;;;1.08;;
54171;SDS011;40076;52.354;4.970;2023-04-03T15:52:22;6.80;;;1.67;;
54171;SDS011;40076;52.354;4.970;2023-04-03T15:54:48;5.78;;;1.10;;
54171;SDS011;40076;52.354;4.970;2023-04-03T15:57:13;4.00;;;1.20;;
54171;SDS011;40076;52.354;4.970;2023-04-03T15:59:38;3.03;;;1.05;;
54171;SDS011;40076;52.354;4.970;2023-04-03T16:02:05;5.13;;;1.42;;
54171;SDS011;40076;52.354;4.970;2023-04-03T16:04:33;3.25;;;1.20;;
54171;SDS011;40076;52.354;4.970;2023-04-03T16:07:02;3.78;;;1.48;;
54171;SDS011;40076;52.354;4.970;2023-04-03T16:09:28;3.03;;;0.93;;
54171;SDS011;40076;52.354;4.970;2023-04-03T16:11:54;3.83;;;1.42;;
54171;SDS011;40076;52.354;4.970;2023-04-03T16:14:21;3.78;;;1.17;;
54171;SDS011;40076;52.354;4.970;2023-04-03T16:16:46;4.60;;;1.25;;
54171;SDS011;40076;52.354;4.970;2023-04-03T16:19:11;4.32;;;1.48;;
54171;SDS011;40076;52.354;4.970;2023-04-03T16:21:37;2.88;;;0.90;;
54171;SDS011;40076;52.354;4.970;2023-04-03T16:24:03;2.58;;;0.80;;
54171;SDS011;40076;52.354;4.970;2023-04-03T16:26:29;4.72;;;1.00;;
54171;SDS011;40076;52.354;4.970;2023-04-03T16:28:54;2.97;;;0.90;;
54171;SDS011;40076;52.354;4.970;2023-04-03T16:31:20;2.88;;;1.08;;
54171;SDS011;40076;52.354;4.970;2023-04-03T16:33:46;4.18;;;1.15;;
54171;SDS011;40076;52.354;4.970;2023-04-03T16:36:11;3.05;;;1.10;;
54171;SDS011;40076;52.354;4.970;2023-04-03T16:38:37;6.03;;;1.30;;
54171;SDS011;40076;52.354;4.970;2023-04-03T16:41:02;5.38;;;1.27;;
54171;SDS011;40076;52.354;4.970;2023-04-03T16:43:30;4.15;;;1.15;;
54171;SDS011;40076;52.354;4.970;2023-04-03T16:45:56;3.90;;;1.40;;